HOURLY OBS INDEX

068

Illawarra

ALBION PARK (WOLLONGONG AIRPORT)

Site: 068241
Alt: 8.0m
18km SSW of WOLLONGONG


  Time     Wind        Temp  DP   Baro     Rain since   Rain past  Vis(m), Cloud(base in m), Weather
  local        km/h                         9am  last   hr   10m    
Sat 00:00    W 43/ 58   9.9  1.5  1003.1    2.6   0.0   0.0   0.0   10000 
Sat 00:07    W 39/ 58   9.7  1.6  1003.0    2.6   0.0  ----   0.0   10000 
Sat 00:30    W 41/ 58   9.7  1.6  1002.5    2.6   0.0   0.0   0.0   10000 
Sat 00:33    W 43/ 63   9.8  1.7  1002.5    2.6   0.0  ----   0.0   10000 
Sat 01:00    W 48/ 76  10.0  1.6  1002.7    2.6   0.0   0.0   0.0   10000 
Sat 01:30    W 52/ 82   9.8  1.5  1002.4    2.6   0.0   0.0   0.0   10000 
Sat 02:00    W 50/ 72   9.7  1.4  1002.0    2.6   0.0   0.0   0.0   10000 
Sat 02:30    W 72/ 82   9.9  1.3  1002.0    2.6   0.0   0.0   0.0   10000 
Sat 02:37    W 50/ 72   9.6  1.5  1002.1    2.6   0.0  ----   0.0   10000 
Sat 03:00    W 59/ 85   9.8  1.5  1001.9    2.6   0.0   0.0   0.0   10000 
Sat 03:30    W 61/ 83   9.8  1.5  1002.4    2.6   0.0   0.0   0.0   10000 
Sat 04:00    W 58/ 76   9.6  1.8  1002.6    2.6   0.0   0.0   0.0   10000 
Sat 04:30    W 58/ 80   9.9  1.0  1002.7    2.6   0.0   0.0   0.0   10000 
Sat 04:38    W 61/ 98   9.8  0.7  1002.9    2.6   0.0  ----   0.0   10000 
Sat 05:00    W 54/ 74   9.6  0.5  1003.2    2.6   0.0   0.0   0.0   10000 

BELLAMBI AWS

Site: 068228
Alt: 10.0m
7km NNE of WOLLONGONG


  Time     Wind        Temp  DP   Baro     Rain since   Rain past  Vis(m), Cloud(base in m), Weather
  local        km/h                         9am  last   hr   10m    
Sat 00:00   NW 58/ 83   9.7  0.6  ------    3.6   0.0   0.0   0.0   ----- 
Sat 00:30  WNW 58/ 82   9.7  0.3  ------    3.6   0.0   0.0   0.0   ----- 
Sat 01:00   NW 63/ 87   9.9  0.5  ------    3.6   0.0   0.0   0.0   ----- 
Sat 01:29  WNW 43/ 70  10.0 -0.2  ------    3.6   0.0  ----   0.0   ----- 
Sat 01:30  WNW 41/ 70   9.9  0.0  ------    3.6   0.0   0.0   0.0   ----- 
Sat 02:00  WNW 65/ 83  10.0 -0.2  ------    3.6   0.0   0.0   0.0   ----- 
Sat 02:17  WNW 43/ 56   9.9  0.3  ------    3.6   0.0  ----   0.0   ----- 
Sat 02:18  WNW 46/ 69  10.0 -0.2  ------    3.6   0.0  ----   0.0   ----- 
Sat 02:30  WNW 52/ 80   9.8  0.4  ------    3.6   0.0   0.0   0.0   ----- 
Sat 03:00  WNW 50/ 80   9.7  0.1  ------    3.6   0.0   0.0   0.0   ----- 
Sat 03:30  WNW 43/ 67   9.8 -0.1  ------    3.6   0.0   0.0   0.0   ----- 
Sat 03:43  WNW 46/ 85   9.9 -0.6  ------    3.6   0.0  ----   0.0   ----- 
Sat 04:00    W 35/ 78   9.6 -0.3  ------    3.6   0.0   0.0   0.0   ----- 
Sat 04:30  WNW 52/ 87   9.7 -0.8  ------    3.6   0.0   0.0   0.0   ----- 
Sat 05:00    W 46/ 95   9.6 -1.4  ------    3.6   0.0   0.0   0.0   ----- 

CAMDEN AIRPORT AWS

Site: 068192
Alt: 73.9m
47km NNW of WOLLONGONG


  Time     Wind        Temp  DP   Baro     Rain since   Rain past  Vis(m), Cloud(base in m), Weather
  local        km/h                         9am  last   hr   10m    
Sat 00:00  WNW 30/ 58  10.2 -0.6  1004.9    1.4   0.0   0.0   0.0   10000 
Sat 00:30  WNW 17/ 30   9.8 -0.7  1004.7    1.4   0.0   0.0   0.0   10000 
Sat 01:00  WNW 19/ 32   9.9 -0.6  1004.8    1.4   0.0   0.0   0.0   10000 
Sat 01:30  WNW 28/ 54   9.9 -0.6  1004.5    1.4   0.0   0.0   0.0   10000 
Sat 02:00  WNW 30/ 52  10.1 -0.7  1004.1    1.4   0.0   0.0   0.0   10000 
Sat 02:30    W 32/ 52  10.2 -0.6  1004.7    1.4   0.0   0.0   0.0   10000 
Sat 03:00    W 32/ 48   9.8 -0.7  1004.9    1.4   0.0   0.0   0.0   10000 
Sat 03:01    W 30/ 48   9.8 -0.7  1004.9    1.4   0.0  ----   0.0   10000 
Sat 03:30    W 32/ 46   9.8 -0.7  1005.3    1.4   0.0   0.0   0.0   10000 
Sat 03:34    W 28/ 46   9.7 -0.8  1005.4    1.4   0.0  ----   0.0   10000 
Sat 04:00    W 26/ 48   9.7 -1.6  1005.5    1.4   0.0   0.0   0.0   10000 
Sat 04:04  WSW 28/ 54   9.7 -1.6  1005.4    1.4   0.0  ----   0.0   10000 
Sat 04:30    W 35/ 58   9.6 -1.4  1005.5    1.4   0.0   0.0   0.0   10000 
Sat 05:00  WSW 22/ 39   9.3 -1.7  1006.3    1.4   0.0   0.0   0.0   10000 

CAMPBELLTOWN (MOUNT ANNAN)

Site: 068257
Alt: 112.0m
42km NNW of WOLLONGONG


  Time     Wind        Temp  DP   Baro     Rain since   Rain past  Vis(m), Cloud(base in m), Weather
  local        km/h                         9am  last   hr   10m    
Sat 00:00  WSW  9/ 22   8.9 -0.1  ------    1.0   0.0   0.0   0.0   ----- 
Sat 00:30   NW  7/ 17   9.1 -0.5  ------    1.0   0.0   0.0   0.0   ----- 
Sat 01:00   NW  6/ 20   8.3  0.5  ------    1.0   0.0   0.0   0.0   ----- 
Sat 01:30  WNW 17/ 30   9.6  0.0  ------    1.0   0.0   0.0   0.0   ----- 
Sat 02:00  WNW 13/ 28   9.3 -0.3  ------    1.0   0.0   0.0   0.0   ----- 
Sat 02:30  WSW 19/ 35   9.5  0.1  ------    1.0   0.0   0.0   0.0   ----- 
Sat 03:00  WSW 11/ 20   8.5  0.0  ------    1.0   0.0   0.0   0.0   ----- 
Sat 03:30   SW 11/ 24   8.7  0.2  ------    1.0   0.0   0.0   0.0   ----- 
Sat 04:00    W 19/ 37   9.1 -0.2  ------    1.0   0.0   0.0   0.0   ----- 
Sat 04:30  WSW 17/ 33   9.1 -0.5  ------    1.0   0.0   0.0   0.0   ----- 
Sat 05:00  WSW 19/ 32   9.0 -1.1  ------    1.0   0.0   0.0   0.0   ----- 

HIGH RANGE AWS (WANGANDERRY)

Site: 068262
Alt: 813.6m
km of


  Time     Wind        Temp  DP   Baro     Rain since   Rain past  Vis(m), Cloud(base in m), Weather
  local        km/h                         9am  last   hr   10m    
Sat 00:00    W 24/ 43   2.1  0.8  1003.9    4.2   0.0   0.0   0.0   ----- 
Sat 00:30  WNW 32/ 45   2.3  0.5  1003.7    4.2   0.0   0.0   0.0   ----- 
Sat 00:40    W 33/ 54   2.4  0.1  1003.6    4.2   0.0  ----   0.0   ----- 
Sat 01:00  WNW 35/ 67   2.4  0.0  1003.3    4.2   0.0   0.0   0.0   ----- 
Sat 01:30  WNW 41/ 58   2.3  0.2  1003.3    4.2   0.0   0.0   0.0   ----- 
Sat 01:43    W 37/ 61   2.1  0.9  1003.6    4.2   0.0  ----   0.0   ----- 
Sat 02:00    W 37/ 58   1.9  1.5  1003.9    4.2   0.0   0.0   0.0   ----- 
Sat 02:30    W 37/ 52   1.9  0.6  1004.0    4.2   0.0   0.0   0.0   ----- 
Sat 02:54    W 41/ 63   2.1  0.3  1004.2    4.2   0.0  ----   0.0   ----- 
Sat 03:00    W 45/ 63   1.9  0.4  1004.3    4.2   0.0   0.0   0.0   ----- 
Sat 03:30    W 37/ 54   1.1  1.1  1004.5    4.2   0.0   0.0   0.0   ----- 
Sat 04:00    W 32/ 43   1.6  0.7  1004.9    4.2   0.0   0.0   0.0   ----- 
Sat 04:02    W 33/ 58   1.6  0.6  1004.8    4.2   0.0  ----   0.0   ----- 
Sat 04:30    W 35/ 61   1.8 -0.1  1005.4    4.2   0.0   0.0   0.0   ----- 
Sat 05:00    W 43/ 63   1.8 -1.1  1005.4    4.2   0.0   0.0   0.0   ----- 

HOLSWORTHY (DEFENCE)

Site: 068263
Alt: 176.0m
8km E of CAMPBELLTOWN


  Time     Wind        Temp  DP   Baro     Rain since   Rain past  Vis(m), Cloud(base in m), Weather
  local        km/h                         9am  last   hr   10m    
Sat 00:00  WNW 13/ 20   8.0  0.5  ------    2.6   0.0   0.0   0.0   ----- 
Sat 00:30   NW 11/ 20   7.7  0.4  ------    2.6   0.0   0.0   0.0   ----- 
Sat 01:00   NW 11/ 22   7.4  0.4  ------    2.6   0.0   0.0   0.0   ----- 
Sat 01:30  WNW 19/ 35   8.3  0.1  ------    2.6   0.0   0.0   0.0   ----- 
Sat 02:00  WNW 19/ 33   8.3 -0.2  ------    2.6   0.0   0.0   0.0   ----- 
Sat 02:30    W 24/ 45   8.8 -0.2  ------    2.6   0.0   0.0   0.0   ----- 
Sat 03:00    W 20/ 35   8.6 -0.2  ------    2.6   0.0   0.0   0.0   ----- 
Sat 03:08    W 28/ 54   8.8 -0.2  ------    2.6   0.0  ----   0.0   ----- 
Sat 03:30    W 24/ 43   8.6  0.1  ------    2.6   0.0   0.0   0.0   ----- 
Sat 04:00    W 22/ 35   8.1  0.3  ------    2.6   0.0   0.0   0.0   ----- 
Sat 04:23    W 28/ 52   8.3 -0.7  ------    2.6   0.0  ----   0.0   ----- 
Sat 04:30    W 30/ 52   8.3 -0.7  ------    2.6   0.0   0.0   0.0   ----- 
Sat 05:00    W 22/ 37   8.2 -1.1  ------    2.6   0.0   0.0   0.0   ----- 

JERVIS BAY (POINT PERPENDICULAR AWS)

Site: 068151
Alt: 85.0m
30km SE of NOWRA


  Time     Wind        Temp  DP   Baro     Rain since   Rain past  Vis(m), Cloud(base in m), Weather
  local        km/h                         9am  last   hr   10m    
Sat 00:00  WNW 24/ 50   9.7  2.6  1001.9    0.6   0.0   0.0   0.0   ----- 
Sat 00:30    W  9/ 19   9.7  2.3  1002.6    0.6   0.0   0.0   0.0   ----- 
Sat 01:00    W 13/ 26   9.7  1.8  1002.2    0.6   0.0   0.0   0.0   ----- 
Sat 01:30    W 15/ 28   9.4  1.6  1002.2    0.6   0.0   0.0   0.0   ----- 
Sat 02:00    W 15/ 30   9.5  2.4  1002.1    0.6   0.0   0.0   0.0   ----- 
Sat 02:30    W 17/ 30   9.4  1.6  1002.2    0.6   0.0   0.0   0.0   ----- 
Sat 03:00  WNW 19/ 39   9.8  2.6  1002.3    0.6   0.0   0.0   0.0   ----- 
Sat 03:30  WNW 19/ 30   9.7  1.6  1002.2    0.6   0.0   0.0   0.0   ----- 
Sat 04:00    W 17/ 28   9.9  1.8  1002.8    0.6   0.0   0.0   0.0   ----- 
Sat 04:30    W 11/ 24   9.8  1.5  1003.6    0.6   0.0   0.0   0.0   ----- 
Sat 05:00    W 13/ 20   9.5  0.9  1003.9    0.6   0.0   0.0   0.0   ----- 

JERVIS BAY AIRFIELD

Site: 068264
Alt: 57.2m
km of


  Time     Wind        Temp  DP   Baro     Rain since   Rain past  Vis(m), Cloud(base in m), Weather
  local        km/h                         9am  last   hr   10m    
Sat 00:00  WNW 35/ 56   9.3  2.4  1002.1    1.0   0.0   0.0   0.0   10000 
Sat 00:30    W 30/ 50   9.2  2.3  1002.5    1.0   0.0   0.0   0.0   10000 
Sat 01:00    W 24/ 41   9.1  2.9  1002.7    1.0   0.0   0.0   0.0   10000|SC1170 
Sat 01:30    W 24/ 33   8.9  2.9  1002.6    1.0   0.0   0.0   0.0   10000|SC1230 
Sat 01:59    W 28/ 46   9.1  2.4  1002.2    1.0   0.0  ----   0.0   10000|SC1230 
Sat 02:00    W 28/ 46   9.1  2.4  1002.3    1.0   0.0   0.0   0.0   10000 
Sat 02:30    W 28/ 48   9.0  2.6  1002.1    1.0   0.0   0.0   0.0   10000 
Sat 03:00    W 26/ 46   9.1  2.2  1002.5    1.0   0.0   0.0   0.0   10000 
Sat 03:02    W 28/ 48   9.2  2.1  1002.5    1.0   0.0  ----   0.0   10000 
Sat 03:30    W 32/ 43   9.3  1.7  1002.7    1.0   0.0   0.0   0.0   10000 
Sat 03:37    W 28/ 46   9.2  1.6  1002.8    1.0   0.0  ----   0.0   10000 
Sat 04:00  WNW 28/ 43   9.2  1.1  1003.1    1.0   0.0   0.0   0.0   10000 
Sat 04:30    W 22/ 37   9.1  0.8  1003.8    1.0   0.0   0.0   0.0   10000 
Sat 05:00    W 28/ 45   9.0  0.5  1004.0    1.0   0.0   0.0   0.0   10000 

KIAMA (BOMBO HEADLAND)

Site: 068242
Alt: 15.5m
26km S of WOLLONGONG


  Time     Wind        Temp  DP   Baro     Rain since   Rain past  Vis(m), Cloud(base in m), Weather
  local        km/h                         9am  last   hr   10m    
Sat 00:00  WNW 32/ 59  10.1  0.4  ------    2.4   0.0   0.0   0.0   ----- 
Sat 00:30  WNW 33/ 56   9.8  0.2  ------    2.4   0.0   0.0   0.0   ----- 
Sat 01:00    W 35/ 67  10.1  0.4  ------    2.4   0.0   0.0   0.0   ----- 
Sat 01:30    W 30/ 65   9.7  0.3  ------    2.4   0.0   0.0   0.0   ----- 
Sat 02:00  WSW 43/ 63   9.9  0.0  ------    2.4   0.0   0.0   0.0   ----- 
Sat 02:30  WSW 37/ 61   9.8  0.2  ------    2.4   0.0   0.0   0.0   ----- 
Sat 03:00  WSW 45/ 74   9.8  0.2  ------    2.4   0.0   0.0   0.0   ----- 
Sat 03:30  WSW 35/ 52   9.8  0.2  ------    2.4   0.0   0.0   0.0   ----- 
Sat 03:32  WSW 37/ 59   9.8  0.2  ------    2.4   0.0  ----   0.0   ----- 
Sat 04:00  WSW 37/ 56   9.9  0.3  ------    2.4   0.0   0.0   0.0   ----- 
Sat 04:01  WSW 35/ 56   9.9  0.3  ------    2.4   0.0  ----   0.0   ----- 
Sat 04:30  WSW 35/ 61   9.8 -0.1  ------    2.4   0.0   0.0   0.0   ----- 
Sat 05:00  WSW 26/ 58   9.8 -1.3  ------    2.4   0.0   0.0   0.0   ----- 
Sat 05:04  WSW 28/ 54   9.9 -1.8  ------    2.4   0.0  ----   0.0   ----- 

MOSS VALE AWS

Site: 068239
Alt: 678.4m
43km NNW of NOWRA


  Time     Wind        Temp  DP   Baro     Rain since   Rain past  Vis(m), Cloud(base in m), Weather
  local        km/h                         9am  last   hr   10m    
Sat 00:00  WNW 33/ 48   3.2 -0.3  1003.2    5.0   0.0   0.0   0.0   10000|SC 660 
Sat 00:03  WNW 35/ 56   3.3 -0.2  1003.1    5.0   0.0  ----   0.0   10000|SC 660 
Sat 00:30  WNW 41/ 61   3.6  0.1  1003.0    5.0   0.0   0.0   0.0   10000|BR 720 BR 840 
Sat 01:00    W 43/ 72   3.5 -0.1  1003.4    5.0   0.0   0.0   0.0   10000|BR 720 OC 810 
Sat 01:30    W 35/ 58   3.4  0.3  1003.6    5.0   0.0   0.0   0.0   10000|OC 660 OC 810 
Sat 02:00    W 41/ 67   3.3 -0.2  1003.6    5.0   0.0   0.0   0.0   10000|OC 660 
Sat 02:30    W 39/ 61   3.5 -0.1  1003.6    5.0   0.0   0.0   0.0   10000|OC 720 
Sat 03:00    W 39/ 58   3.4  0.1  1004.1    5.0   0.0   0.0   0.0   10000|BR 660 OC 810 
Sat 03:30    W 45/ 72   3.4 -0.2  1004.3    5.0   0.0   0.0   0.0   10000|BR 660 BR 960 BR1350 
Sat 04:00    W 46/ 70   3.4 -0.4  1004.1    5.0   0.0   0.0   0.0   10000|SC 330 SC 720 BR 840 
Sat 04:30    W 46/ 74   3.2 -1.2  1004.4    5.0   0.0   0.0   0.0   10000|SC 900 SC1050 
Sat 05:00    W 43/ 59   3.1 -1.3  1004.8    5.0   0.0   0.0   0.0   10000|SC 900 
Sat 05:01    W 43/ 61   3.1 -1.4  1004.8    5.0   0.0  ----   0.0   10000|SC 900 

NOWRA RAN AIR STATION (EAST ANEMOMETER)

Site: 068259
Alt: 105.0m
km of


  Time     Wind        Temp  DP   Baro     Rain since   Rain past  Vis(m), Cloud(base in m), Weather
  local        km/h                         9am  last   hr   10m    
Sat 00:00   NW 56/ 74 --------  ------   ----  ----  ----  ----   ----- 
Sat 00:30   NW 54/ 80 --------  ------   ----  ----  ----  ----   ----- 
Sat 01:00   NW 43/ 59 --------  ------   ----  ----  ----  ----   ----- 
Sat 01:03  WNW 45/ 76 --------  ------   ----  ----  ----  ----   ----- 
Sat 01:30  WNW 35/ 56 --------  ------   ----  ----  ----  ----   ----- 
Sat 02:00  WNW 28/ 46 --------  ------   ----  ----  ----  ----   ----- 
Sat 02:27    W 32/ 70 --------  ------   ----  ----  ----  ----   ----- 
Sat 02:30  WNW 33/ 70 --------  ------   ----  ----  ----  ----   ----- 
Sat 03:00  WNW 26/ 39 --------  ------   ----  ----  ----  ----   ----- 
Sat 03:27  WNW 28/ 50 --------  ------   ----  ----  ----  ----   ----- 
Sat 03:30  WNW 30/ 50 --------  ------   ----  ----  ----  ----   ----- 
Sat 04:00  WNW 32/ 48 --------  ------   ----  ----  ----  ----   ----- 
Sat 04:03  WNW 32/ 50 --------  ------   ----  ----  ----  ----   ----- 
Sat 04:30  WNW 24/ 39 --------  ------   ----  ----  ----  ----   ----- 
Sat 04:38  WNW 28/ 50 --------  ------   ----  ----  ----  ----   ----- 
Sat 04:49   NW 54/ 70 --------  ------   ----  ----  ----  ----   ----- 
Sat 04:50   NW 52/ 70 --------  ------   ----  ----  ----  ----   ----- 
Sat 05:00   NW 54/ 82 --------  ------   ----  ----  ----  ----   ----- 

NOWRA RAN AIR STATION (WEST ANEMOMETER)

Site: 068258
Alt: 115.0m
km of


  Time     Wind        Temp  DP   Baro     Rain since   Rain past  Vis(m), Cloud(base in m), Weather
  local        km/h                         9am  last   hr   10m    
Sat 00:00  WNW 41/ 72 --------  ------   ----  ----  ----  ----   ----- 
Sat 00:30  WNW 46/ 65 --------  ------   ----  ----  ----  ----   ----- 
Sat 01:00  WNW 43/ 72 --------  ------   ----  ----  ----  ----   ----- 
Sat 01:30  WNW 30/ 39 --------  ------   ----  ----  ----  ----   ----- 
Sat 01:43  WNW 28/ 52 --------  ------   ----  ----  ----  ----   ----- 
Sat 02:00  WNW 24/ 48 --------  ------   ----  ----  ----  ----   ----- 
Sat 02:26  WNW 37/ 63 --------  ------   ----  ----  ----  ----   ----- 
Sat 02:30    W 37/ 63 --------  ------   ----  ----  ----  ----   ----- 
Sat 03:00    W 15/ 22 --------  ------   ----  ----  ----  ----   ----- 
Sat 03:27  WNW 35/ 50 --------  ------   ----  ----  ----  ----   ----- 
Sat 03:30  WNW 35/ 50 --------  ------   ----  ----  ----  ----   ----- 
Sat 03:34  WNW 35/ 58 --------  ------   ----  ----  ----  ----   ----- 
Sat 04:00    W 26/ 52 --------  ------   ----  ----  ----  ----   ----- 
Sat 04:01  WNW 28/ 56 --------  ------   ----  ----  ----  ----   ----- 
Sat 04:30  WSW 20/ 32 --------  ------   ----  ----  ----  ----   ----- 
Sat 04:43  WNW 28/ 54 --------  ------   ----  ----  ----  ----   ----- 
Sat 04:54  WNW 41/ 74 --------  ------   ----  ----  ----  ----   ----- 
Sat 05:00  WNW 52/ 76 --------  ------   ----  ----  ----  ----   ----- 

NOWRA RAN AIR STATION AWS

Site: 068072
Alt: 109.0m
9km SW of NOWRA


  Time     Wind        Temp  DP   Baro     Rain since   Rain past  Vis(m), Cloud(base in m), Weather
  local        km/h                         9am  last   hr   10m    
Sat 00:00  WNW 48/ 74   9.0  1.0  1001.6    1.2   0.0   0.0   0.0   10000 
Sat 00:30  WNW 46/ 74   9.0  1.2  1001.5    1.2   0.0   0.0   0.0   10000 
Sat 01:00  WNW 37/ 58   8.7  1.4  1001.6    1.2   0.0   0.0   0.0   10000|SC1110 
Sat 01:30  WNW 35/ 56   8.7  1.4  1002.3    1.2   0.0   0.0   0.0   10000|BR1170 
Sat 02:00    W 26/ 46   8.5  1.4  1001.9    1.2   0.0   0.0   0.0   10000|BR1170 
Sat 02:20    W 30/ 48   8.6  1.5  1002.2    1.2   0.0  ----   0.0   10000|SC1110 
Sat 02:30    W 28/ 54   8.7  1.6  1002.4    1.2   0.0   0.0   0.0   10000|SC1110 
Sat 03:00    W 28/ 52   8.6  1.1  1003.0    1.2   0.0   0.0   0.0   10000|SC1230 
Sat 03:30   NW 22/ 33   8.7  0.9  1003.3    1.2   0.0   0.0   0.0   10000|BR1290 
Sat 03:34    W 35/ 54   8.7  0.9  1003.2    1.2   0.0  ----   0.0   10000|BR1290 
Sat 04:00    W 17/ 26   8.5  1.2  1003.6    1.2   0.0   0.0   0.0   10000|BR1290 
Sat 04:30    W 22/ 39   8.4  0.1  1004.1    1.2   0.0   0.0   0.0   10000|SC1290 
Sat 04:44  WNW 28/ 50   8.4 -0.4  1004.2    1.2   0.0  ----   0.0   10000|SC1350 
Sat 04:55  WNW 43/ 72   8.7 -1.4  1003.9    1.2   0.0  ----   0.0   10000 
Sat 05:00  WNW 46/ 72   8.5 -1.6  1003.8    1.2   0.0   0.0   0.0   10000 

PORT KEMBLA NTC AWS

Site: 068253
Alt: 0.0m
6km SSE of WOLLONGONG


  Time     Wind        Temp  DP   Baro     Rain since   Rain past  Vis(m), Cloud(base in m), Weather
  local        km/h                         9am  last   hr   10m    
Sat 00:00    W 39/ 56  10.9----  1002.6   ----  ----  ----  ----   ----- 
Sat 00:02    W 39/ 58  10.7----  1002.6   ----  ----  ----  ----   ----- 
Sat 00:30    W 39/ 61  10.8----  1002.2   ----  ----  ----  ----   ----- 
Sat 01:00    W 43/ 65  11.0----  1002.2   ----  ----  ----  ----   ----- 
Sat 01:30  WNW 45/ 67  10.8----  1002.3   ----  ----  ----  ----   ----- 
Sat 01:56  WNW 58/ 87  10.9----  1002.2   ----  ----  ----  ----   ----- 
Sat 02:00  WNW 54/ 87  10.9----  1001.8   ----  ----  ----  ----   ----- 
Sat 02:30  WNW 54/ 83  10.8----  1001.6   ----  ----  ----  ----   ----- 
Sat 03:00    W 52/ 76  10.7----  1002.3   ----  ----  ----  ----   ----- 
Sat 03:30    W 43/ 61  10.5----  1003.4   ----  ----  ----  ----   ----- 
Sat 03:31    W 41/ 61  10.4----  1003.3   ----  ----  ----  ----   ----- 
Sat 04:00    W 28/ 46  10.4----  1003.7   ----  ----  ----  ----   ----- 
Sat 04:02    W 30/ 54  10.5----  1003.8   ----  ----  ----  ----   ----- 
Sat 04:30    W 28/ 46  10.6----  1004.4   ----  ----  ----  ----   ----- 
Sat 05:00    W 33/ 52  10.5----  1004.6   ----  ----  ----  ----   -----